createdAt,value
2022-08-19T00:03:10.453Z,99361.97
2022-08-19T00:08:18.149Z,99359.85
2022-08-19T00:13:22.038Z,99350.92
2022-08-19T00:18:25.927Z,99345.35
2022-08-19T00:23:29.910Z,99343.22
2022-08-19T00:28:34.718Z,99339.65
2022-08-19T00:33:39.781Z,99340.90
2022-08-19T00:38:44.841Z,99341.42
2022-08-19T00:44:12.371Z,99340.23
2022-08-19T00:49:31.027Z,99351.23
2022-08-19T00:54:38.073Z,99352.95
2022-08-19T01:00:00.499Z,99363.37
2022-08-19T01:05:19.699Z,99363.29
2022-08-19T01:10:29.412Z,99357.41
2022-08-19T01:15:47.773Z,99354.21
2022-08-19T01:20:53.749Z,99348.70
2022-08-19T01:25:57.806Z,99338.10
2022-08-19T01:31:08.021Z,99329.39
2022-08-19T01:36:17.394Z,99320.56
2022-08-19T01:41:20.912Z,99308.86
2022-08-19T01:46:25.215Z,99305.83
2022-08-19T01:51:29.935Z,99306.30
2022-08-19T01:56:43.248Z,99300.01
2022-08-19T02:01:46.961Z,99302.37
2022-08-19T02:06:50.597Z,99293.42
2022-08-19T02:11:54.954Z,99291.00
2022-08-19T02:17:00.868Z,99293.90
2022-08-19T02:22:05.176Z,99291.64
2022-08-19T02:27:08.858Z,99289.67
2022-08-19T02:32:13.158Z,99290.41
2022-08-19T02:37:36.448Z,99281.24
2022-08-19T02:42:42.261Z,99273.13
2022-08-19T02:47:45.722Z,99268.34
2022-08-19T02:52:49.614Z,99260.13
2022-08-19T02:57:53.223Z,99259.05
2022-08-19T03:02:57.413Z,99257.99
2022-08-19T03:08:01.882Z,99252.32
2022-08-19T03:13:06.367Z,99254.95
2022-08-19T03:18:11.089Z,99261.42
2022-08-19T03:23:18.583Z,99262.30
2022-08-19T03:28:22.741Z,99264.59
2022-08-19T03:33:29.898Z,99267.70
2022-08-19T03:38:35.050Z,99277.89
2022-08-19T03:43:41.199Z,99269.23
2022-08-19T03:48:46.957Z,99268.86
2022-08-19T03:53:51.571Z,99272.45
2022-08-19T03:58:58.892Z,99277.23
2022-08-19T04:04:04.902Z,99282.02
2022-08-19T04:09:12.099Z,99280.55
2022-08-19T04:14:21.169Z,99274.98
2022-08-19T04:19:26.923Z,99280.56
2022-08-19T04:24:32.498Z,99278.76
2022-08-19T04:29:36.045Z,99263.23
2022-08-19T04:35:03.192Z,99254.08
2022-08-19T04:40:27.586Z,99269.95
2022-08-19T04:45:36.271Z,99278.56
2022-08-19T04:50:48.522Z,99266.66
2022-08-19T04:55:53.723Z,99274.06
2022-08-19T05:01:01.351Z,99282.91
2022-08-19T05:06:11.850Z,99294.59
2022-08-19T05:11:26.739Z,99290.27
2022-08-19T05:16:30.906Z,99280.86
2022-08-19T05:21:54.675Z,99287.51
2022-08-19T05:26:58.541Z,99275.84
2022-08-19T05:32:07.082Z,99285.85
2022-08-19T05:37:13.691Z,99291.53
2022-08-19T05:42:18.013Z,99291.36
2022-08-19T05:47:25.494Z,99292.10
2022-08-19T05:52:30.738Z,99290.96
2022-08-19T05:57:35.773Z,99290.80
2022-08-19T06:02:40.481Z,99285.52
2022-08-19T06:07:44.722Z,99288.20
2022-08-19T06:12:50.348Z,99298.68
2022-08-19T06:17:55.263Z,99313.80
2022-08-19T06:23:00.820Z,99320.08
2022-08-19T06:28:15.030Z,99317.15
2022-08-19T06:33:27.534Z,99316.54
2022-08-19T06:38:32.449Z,99307.57
2022-08-19T06:43:43.025Z,99305.36
2022-08-19T06:48:48.746Z,99296.05
2022-08-19T06:53:55.711Z,99294.62
2022-08-19T06:59:01.465Z,99300.00
2022-08-19T07:04:12.328Z,99315.07
2022-08-19T07:09:18.632Z,99326.71
2022-08-19T07:14:28.512Z,99327.52
2022-08-19T07:19:32.958Z,99320.63
2022-08-19T07:24:39.160Z,99327.46
2022-08-19T07:29:57.314Z,99334.16
2022-08-19T07:35:01.871Z,99327.83
2022-08-19T07:40:08.336Z,99324.66
2022-08-19T07:45:12.146Z,99338.02
2022-08-19T07:50:21.333Z,99341.16
2022-08-19T07:55:41.739Z,99344.16
2022-08-19T08:00:49.922Z,99334.30
2022-08-19T08:06:12.106Z,99333.64
2022-08-19T08:11:20.009Z,99348.48
2022-08-19T08:16:26.667Z,99349.89
2022-08-19T08:21:31.543Z,99364.41
2022-08-19T08:26:36.194Z,99363.14
2022-08-19T08:31:44.065Z,99361.91
2022-08-19T08:36:48.447Z,99361.02
2022-08-19T08:42:10.006Z,99363.20
2022-08-19T08:47:24.449Z,99366.08
2022-08-19T08:52:36.517Z,99365.70
2022-08-19T08:57:44.250Z,99359.61
2022-08-19T09:02:50.764Z,99364.10
2022-08-19T09:08:06.335Z,99373.77
2022-08-19T09:13:10.142Z,99367.91
2022-08-19T09:18:19.110Z,99360.75
2022-08-19T09:23:26.612Z,99360.02
2022-08-19T09:28:32.933Z,99358.34
2022-08-19T09:33:37.295Z,99356.68
2022-08-19T09:38:43.491Z,99359.79
2022-08-19T09:43:53.468Z,99354.73
2022-08-19T09:49:03.050Z,99349.52
2022-08-19T09:54:11.642Z,99345.35
2022-08-19T09:59:16.426Z,99341.88
2022-08-19T10:04:43.453Z,99343.14
2022-08-19T10:09:49.173Z,99340.98
2022-08-19T10:14:55.169Z,99341.81
2022-08-19T10:20:00.269Z,99346.59
2022-08-19T10:25:05.859Z,99346.95
2022-08-19T10:30:11.290Z,99344.37
2022-08-19T10:35:21.803Z,99337.73
2022-08-19T10:40:29.723Z,99337.35
2022-08-19T10:45:33.247Z,99336.23
2022-08-19T10:50:56.350Z,99332.46
2022-08-19T10:56:18.545Z,99332.30
2022-08-19T11:01:22.255Z,99328.13
2022-08-19T11:06:26.924Z,99312.80
2022-08-19T11:11:34.122Z,99310.60
2022-08-19T11:16:43.850Z,99308.01
2022-08-19T11:21:48.629Z,99309.21
2022-08-19T11:27:00.360Z,99300.98
2022-08-19T11:32:10.267Z,99289.72
2022-08-19T11:37:14.008Z,99289.04
2022-08-19T11:42:38.342Z,99290.95
2022-08-19T11:47:41.777Z,99292.52
2022-08-19T11:52:46.534Z,99293.69
2022-08-19T11:57:50.184Z,99290.05
2022-08-19T12:02:53.958Z,99290.30
2022-08-19T12:07:57.544Z,99285.56
2022-08-19T12:13:01.170Z,99280.52
2022-08-19T12:18:10.719Z,99277.42
2022-08-19T12:23:15.357Z,99269.84
2022-08-19T12:28:24.774Z,99270.14
2022-08-19T12:33:30.085Z,99271.81
2022-08-19T12:38:35.554Z,99278.71
2022-08-19T12:43:42.667Z,99285.53
2022-08-19T12:48:46.658Z,99287.30
2022-08-19T12:53:51.311Z,99286.56
2022-08-19T12:58:55.489Z,99284.20
2022-08-19T13:03:58.812Z,99277.77
2022-08-19T13:09:01.895Z,99280.13
2022-08-19T13:14:06.546Z,99276.77
2022-08-19T13:19:11.981Z,99274.91
2022-08-19T13:24:15.917Z,99278.06
2022-08-19T13:29:38.241Z,99278.65
2022-08-19T13:34:48.223Z,99277.26
2022-08-19T13:39:51.820Z,99274.51
2022-08-19T13:44:55.861Z,99270.09
2022-08-19T13:49:59.727Z,99261.80
2022-08-19T13:55:03.616Z,99255.39
2022-08-19T14:00:12.023Z,99253.41
2022-08-19T14:05:17.543Z,99256.58
2022-08-19T14:10:22.293Z,99257.86
2022-08-19T14:15:27.030Z,99267.47
2022-08-19T14:20:31.185Z,99271.98
2022-08-19T14:25:35.189Z,99275.23
2022-08-19T14:30:39.061Z,99265.73
2022-08-19T14:35:47.043Z,99259.65
2022-08-19T14:40:51.013Z,99249.52
2022-08-19T14:45:55.051Z,99251.95
2022-08-19T14:50:58.462Z,99258.34
2022-08-19T14:56:02.561Z,99257.86
2022-08-19T15:01:06.438Z,99253.67
2022-08-19T15:06:12.830Z,99256.95
2022-08-19T15:11:21.718Z,99256.45
2022-08-19T15:16:26.865Z,99257.11
2022-08-19T15:21:31.305Z,99258.00
2022-08-19T15:26:34.819Z,99258.45
2022-08-19T15:31:39.012Z,99248.02
2022-08-19T15:36:42.856Z,99239.46
2022-08-19T15:41:47.512Z,99235.07
2022-08-19T15:46:51.874Z,99232.07
2022-08-19T15:51:58.848Z,99228.02
2022-08-19T15:57:20.979Z,99230.66
2022-08-19T16:02:48.533Z,99228.42
2022-08-19T16:07:57.624Z,99233.27
2022-08-19T16:13:06.679Z,99232.63
2022-08-19T16:18:10.921Z,99225.70
2022-08-19T16:23:14.447Z,99220.31
2022-08-19T16:28:18.748Z,99212.38
2022-08-19T16:33:23.180Z,99207.10
2022-08-19T16:38:28.498Z,99199.20
2022-08-19T16:43:32.643Z,99208.70
2022-08-19T16:48:40.303Z,99214.08
2022-08-19T16:53:45.400Z,99226.38
2022-08-19T16:58:50.850Z,99237.85
2022-08-19T17:03:56.274Z,99246.98
2022-08-19T17:09:02.322Z,99256.03
2022-08-19T17:14:08.892Z,99251.77
2022-08-19T17:19:13.486Z,99257.33
2022-08-19T17:24:18.350Z,99269.11
2022-08-19T17:29:22.572Z,99266.95
2022-08-19T17:34:27.803Z,99269.48
2022-08-19T17:39:32.103Z,99267.64
2022-08-19T17:44:50.727Z,99276.61
2022-08-19T17:49:55.432Z,99273.54
2022-08-19T17:54:59.340Z,99270.42
2022-08-19T18:00:05.523Z,99276.42
2022-08-19T18:05:13.771Z,99280.50
2022-08-19T18:10:17.825Z,99276.87
2022-08-19T18:15:23.162Z,99286.06
2022-08-19T18:20:26.551Z,99288.78
2022-08-19T18:25:30.238Z,99280.61
2022-08-19T18:30:35.333Z,99275.58
2022-08-19T18:35:39.878Z,99266.45
2022-08-19T18:41:03.312Z,99263.93
2022-08-19T18:46:45.259Z,99263.22
2022-08-19T18:51:48.536Z,99270.77
2022-08-19T18:56:56.072Z,99272.92
2022-08-19T19:02:02.853Z,99268.45
2022-08-19T19:07:07.360Z,99263.14
2022-08-19T19:12:14.881Z,99277.44
2022-08-19T19:17:27.704Z,99278.91
2022-08-19T19:22:32.300Z,99290.80
2022-08-19T19:27:37.172Z,99333.41
2022-08-19T19:32:42.861Z,99375.38
2022-08-19T19:37:53.390Z,99377.73
2022-08-19T19:42:57.910Z,99355.46
2022-08-19T19:48:01.730Z,99344.19
2022-08-19T19:53:06.797Z,99362.27
2022-08-19T19:58:10.792Z,99377.87
2022-08-19T20:03:18.561Z,99376.80
2022-08-19T20:08:43.182Z,99376.33
2022-08-19T20:13:47.969Z,99379.79
2022-08-19T20:18:52.992Z,99383.17
2022-08-19T20:24:09.884Z,99381.48
2022-08-19T20:29:37.996Z,99376.30
2022-08-19T20:34:42.655Z,99377.40
2022-08-19T20:39:47.810Z,99371.35
2022-08-19T20:44:52.102Z,99373.81
2022-08-19T20:49:57.280Z,99370.27
2022-08-19T20:55:02.020Z,99392.15
2022-08-19T21:00:11.508Z,99447.83
2022-08-19T21:05:15.791Z,99462.92
2022-08-19T21:10:23.337Z,99480.11
2022-08-19T21:15:27.797Z,99506.03
2022-08-19T21:20:31.919Z,99517.83
2022-08-19T21:25:36.678Z,99517.59
2022-08-19T21:30:42.323Z,99516.73
2022-08-19T21:35:46.132Z,99525.02
2022-08-19T21:40:50.890Z,99498.73
2022-08-19T21:45:56.350Z,99462.16
2022-08-19T21:51:00.778Z,99449.86
2022-08-19T21:56:08.825Z,99457.64
2022-08-19T22:01:13.764Z,99447.18
2022-08-19T22:06:18.436Z,99451.91
2022-08-19T22:11:26.577Z,99441.29
2022-08-19T22:16:30.043Z,99430.80
2022-08-19T22:21:40.491Z,99425.95
2022-08-19T22:26:45.455Z,99416.80
2022-08-19T22:31:54.534Z,99415.69
2022-08-19T22:37:03.283Z,99418.57
2022-08-19T22:42:08.353Z,99417.56
2022-08-19T22:47:13.142Z,99425.86
2022-08-19T22:52:21.421Z,99428.78
2022-08-19T22:57:25.754Z,99427.88
2022-08-19T23:02:38.765Z,99425.09
2022-08-19T23:07:57.786Z,99419.49
2022-08-19T23:13:03.203Z,99418.64
2022-08-19T23:18:07.871Z,99435.16
2022-08-19T23:23:19.889Z,99435.40
2022-08-19T23:28:42.990Z,99427.98
2022-08-19T23:33:51.469Z,99442.75
2022-08-19T23:38:58.919Z,99466.23
2022-08-19T23:44:03.925Z,99498.50
2022-08-19T23:49:09.211Z,99520.10
2022-08-19T23:54:12.623Z,99531.68
2022-08-19T23:59:18.922Z,99548.09
